sensor_id;sensor_type;location;lat;lon;timestamp;temperature;humidity
71088;SHT31;58747;50.674;4.616;2022-08-05T00:01:23;19.48;91.46
71088;SHT31;58747;50.674;4.616;2022-08-05T00:03:49;19.52;91.97
71088;SHT31;58747;50.674;4.616;2022-08-05T00:06:15;19.51;91.89
71088;SHT31;58747;50.674;4.616;2022-08-05T00:08:41;19.49;91.07
71088;SHT31;58747;50.674;4.616;2022-08-05T00:11:10;19.48;91.19
71088;SHT31;58747;50.674;4.616;2022-08-05T00:13:37;19.48;90.96
71088;SHT31;58747;50.674;4.616;2022-08-05T00:16:04;19.42;91.10
71088;SHT31;58747;50.674;4.616;2022-08-05T00:18:29;19.46;91.26
71088;SHT31;58747;50.674;4.616;2022-08-05T00:20:55;19.38;91.58
71088;SHT31;58747;50.674;4.616;2022-08-05T00:23:21;19.28;92.89
71088;SHT31;58747;50.674;4.616;2022-08-05T00:25:47;19.18;93.19
71088;SHT31;58747;50.674;4.616;2022-08-05T00:28:13;19.11;93.72
71088;SHT31;58747;50.674;4.616;2022-08-05T00:30:39;19.06;93.42
71088;SHT31;58747;50.674;4.616;2022-08-05T00:33:04;18.98;93.53
71088;SHT31;58747;50.674;4.616;2022-08-05T00:35:29;18.86;93.34
71088;SHT31;58747;50.674;4.616;2022-08-05T00:37:54;18.84;94.15
71088;SHT31;58747;50.674;4.616;2022-08-05T00:40:23;18.90;94.65
71088;SHT31;58747;50.674;4.616;2022-08-05T00:42:49;18.84;94.62
71088;SHT31;58747;50.674;4.616;2022-08-05T00:45:14;18.84;94.61
71088;SHT31;58747;50.674;4.616;2022-08-05T00:47:40;18.79;94.81
71088;SHT31;58747;50.674;4.616;2022-08-05T00:50:07;18.74;94.83
71088;SHT31;58747;50.674;4.616;2022-08-05T00:52:32;18.77;95.16
71088;SHT31;58747;50.674;4.616;2022-08-05T00:54:58;18.76;94.90
71088;SHT31;58747;50.674;4.616;2022-08-05T00:57:23;18.77;94.75
71088;SHT31;58747;50.674;4.616;2022-08-05T00:59:48;18.79;94.89
71088;SHT31;58747;50.674;4.616;2022-08-05T01:02:14;18.77;95.07
71088;SHT31;58747;50.674;4.616;2022-08-05T01:04:39;18.71;95.29
71088;SHT31;58747;50.674;4.616;2022-08-05T01:07:05;18.63;94.86
71088;SHT31;58747;50.674;4.616;2022-08-05T01:09:30;18.64;95.37
71088;SHT31;58747;50.674;4.616;2022-08-05T01:12:00;18.60;95.20
71088;SHT31;58747;50.674;4.616;2022-08-05T01:14:35;18.53;95.08
71088;SHT31;58747;50.674;4.616;2022-08-05T01:17:10;18.46;95.36
71088;SHT31;58747;50.674;4.616;2022-08-05T01:28:17;18.02;95.36
71088;SHT31;58747;50.674;4.616;2022-08-05T01:30:53;18.06;95.57
71088;SHT31;58747;50.674;4.616;2022-08-05T01:33:23;17.97;94.87
71088;SHT31;58747;50.674;4.616;2022-08-05T01:35:50;17.95;95.26
71088;SHT31;58747;50.674;4.616;2022-08-05T01:38:18;18.01;95.38
71088;SHT31;58747;50.674;4.616;2022-08-05T01:40:45;18.00;95.05
71088;SHT31;58747;50.674;4.616;2022-08-05T01:43:11;18.00;95.16
71088;SHT31;58747;50.674;4.616;2022-08-05T01:45:38;17.97;94.74
71088;SHT31;58747;50.674;4.616;2022-08-05T01:48:05;17.98;94.94
71088;SHT31;58747;50.674;4.616;2022-08-05T01:50:36;18.06;95.44
71088;SHT31;58747;50.674;4.616;2022-08-05T01:53:04;18.00;95.22
71088;SHT31;58747;50.674;4.616;2022-08-05T01:55:32;18.00;95.29
71088;SHT31;58747;50.674;4.616;2022-08-05T01:58:00;18.05;95.03
71088;SHT31;58747;50.674;4.616;2022-08-05T02:00:26;18.02;95.05
71088;SHT31;58747;50.674;4.616;2022-08-05T02:02:55;18.09;95.47
71088;SHT31;58747;50.674;4.616;2022-08-05T02:05:24;18.01;95.30
71088;SHT31;58747;50.674;4.616;2022-08-05T02:07:51;18.01;95.08
71088;SHT31;58747;50.674;4.616;2022-08-05T02:10:16;18.01;95.69
71088;SHT31;58747;50.674;4.616;2022-08-05T02:12:54;18.01;95.03
71088;SHT31;58747;50.674;4.616;2022-08-05T02:15:24;18.08;95.01
71088;SHT31;58747;50.674;4.616;2022-08-05T02:17:56;18.09;94.63
71088;SHT31;58747;50.674;4.616;2022-08-05T02:20:25;18.15;94.28
71088;SHT31;58747;50.674;4.616;2022-08-05T02:22:58;18.16;93.92
71088;SHT31;58747;50.674;4.616;2022-08-05T02:25:27;18.19;93.87
71088;SHT31;58747;50.674;4.616;2022-08-05T02:27:56;18.18;93.42
71088;SHT31;58747;50.674;4.616;2022-08-05T02:30:24;18.16;93.76
71088;SHT31;58747;50.674;4.616;2022-08-05T02:32:51;18.12;93.70
71088;SHT31;58747;50.674;4.616;2022-08-05T02:35:20;18.11;93.93
71088;SHT31;58747;50.674;4.616;2022-08-05T02:37:46;18.15;93.87
71088;SHT31;58747;50.674;4.616;2022-08-05T02:40:15;18.18;93.83
71088;SHT31;58747;50.674;4.616;2022-08-05T02:42:41;18.19;93.81
71088;SHT31;58747;50.674;4.616;2022-08-05T02:45:08;18.18;93.85
71088;SHT31;58747;50.674;4.616;2022-08-05T02:47:35;18.12;93.93
71088;SHT31;58747;50.674;4.616;2022-08-05T02:50:03;18.19;94.02
71088;SHT31;58747;50.674;4.616;2022-08-05T02:52:30;18.21;93.84
71088;SHT31;58747;50.674;4.616;2022-08-05T02:54:59;18.18;93.75
71088;SHT31;58747;50.674;4.616;2022-08-05T02:57:25;18.18;93.68
71088;SHT31;58747;50.674;4.616;2022-08-05T02:59:52;18.13;93.70
71088;SHT31;58747;50.674;4.616;2022-08-05T03:02:22;18.21;93.96
71088;SHT31;58747;50.674;4.616;2022-08-05T03:04:49;18.18;93.52
71088;SHT31;58747;50.674;4.616;2022-08-05T03:07:18;18.28;94.04
71088;SHT31;58747;50.674;4.616;2022-08-05T03:09:44;18.19;93.57
71088;SHT31;58747;50.674;4.616;2022-08-05T03:12:09;18.21;93.61
71088;SHT31;58747;50.674;4.616;2022-08-05T03:14:52;18.25;93.73
71088;SHT31;58747;50.674;4.616;2022-08-05T03:17:18;18.22;93.81
71088;SHT31;58747;50.674;4.616;2022-08-05T03:19:43;18.22;93.99
71088;SHT31;58747;50.674;4.616;2022-08-05T03:22:08;18.24;93.73
71088;SHT31;58747;50.674;4.616;2022-08-05T03:24:34;18.21;93.47
71088;SHT31;58747;50.674;4.616;2022-08-05T03:26:59;18.16;93.11
71088;SHT31;58747;50.674;4.616;2022-08-05T03:29:25;18.19;93.21
71088;SHT31;58747;50.674;4.616;2022-08-05T03:31:51;18.15;92.87
71088;SHT31;58747;50.674;4.616;2022-08-05T03:34:16;18.18;93.40
71088;SHT31;58747;50.674;4.616;2022-08-05T03:36:43;18.16;93.41
71088;SHT31;58747;50.674;4.616;2022-08-05T03:39:08;18.16;93.35
71088;SHT31;58747;50.674;4.616;2022-08-05T03:41:34;18.13;92.85
71088;SHT31;58747;50.674;4.616;2022-08-05T03:43:59;18.13;93.16
71088;SHT31;58747;50.674;4.616;2022-08-05T03:46:24;18.13;93.48
71088;SHT31;58747;50.674;4.616;2022-08-05T03:48:50;18.15;93.30
71088;SHT31;58747;50.674;4.616;2022-08-05T03:51:23;18.13;93.36
71088;SHT31;58747;50.674;4.616;2022-08-05T03:54:14;18.12;93.45
71088;SHT31;58747;50.674;4.616;2022-08-05T03:56:44;18.11;93.35
71088;SHT31;58747;50.674;4.616;2022-08-05T03:59:22;18.11;93.94
71088;SHT31;58747;50.674;4.616;2022-08-05T04:01:49;18.04;93.25
71088;SHT31;58747;50.674;4.616;2022-08-05T04:04:16;18.05;93.36
71088;SHT31;58747;50.674;4.616;2022-08-05T04:06:43;18.01;93.57
71088;SHT31;58747;50.674;4.616;2022-08-05T04:09:10;17.95;93.51
71088;SHT31;58747;50.674;4.616;2022-08-05T04:11:36;17.92;93.81
71088;SHT31;58747;50.674;4.616;2022-08-05T04:14:02;17.94;93.83
71088;SHT31;58747;50.674;4.616;2022-08-05T04:16:28;17.90;93.58
71088;SHT31;58747;50.674;4.616;2022-08-05T04:18:54;17.94;94.07
71088;SHT31;58747;50.674;4.616;2022-08-05T04:21:19;17.88;94.30
71088;SHT31;58747;50.674;4.616;2022-08-05T04:23:45;17.91;94.37
71088;SHT31;58747;50.674;4.616;2022-08-05T04:26:12;17.81;93.95
71088;SHT31;58747;50.674;4.616;2022-08-05T04:28:37;17.77;94.22
71088;SHT31;58747;50.674;4.616;2022-08-05T04:31:03;17.73;94.34
71088;SHT31;58747;50.674;4.616;2022-08-05T04:33:28;17.73;94.39
71088;SHT31;58747;50.674;4.616;2022-08-05T04:35:54;17.75;94.60
71088;SHT31;58747;50.674;4.616;2022-08-05T04:38:19;17.69;94.58
71088;SHT31;58747;50.674;4.616;2022-08-05T04:40:45;17.66;94.60
71088;SHT31;58747;50.674;4.616;2022-08-05T04:43:10;17.63;94.38
71088;SHT31;58747;50.674;4.616;2022-08-05T04:45:35;17.59;94.95
71088;SHT31;58747;50.674;4.616;2022-08-05T04:48:12;17.59;94.99
71088;SHT31;58747;50.674;4.616;2022-08-05T04:50:45;17.57;95.06
71088;SHT31;58747;50.674;4.616;2022-08-05T04:53:12;17.57;95.19
71088;SHT31;58747;50.674;4.616;2022-08-05T04:55:38;17.59;95.33
71088;SHT31;58747;50.674;4.616;2022-08-05T04:58:05;17.57;95.04
71088;SHT31;58747;50.674;4.616;2022-08-05T05:00:32;17.54;95.16
71088;SHT31;58747;50.674;4.616;2022-08-05T05:02:57;17.54;95.13
71088;SHT31;58747;50.674;4.616;2022-08-05T05:05:22;17.54;95.03
71088;SHT31;58747;50.674;4.616;2022-08-05T05:07:48;17.50;94.99
71088;SHT31;58747;50.674;4.616;2022-08-05T05:10:13;17.49;94.57
71088;SHT31;58747;50.674;4.616;2022-08-05T05:12:38;17.47;94.89
71088;SHT31;58747;50.674;4.616;2022-08-05T05:15:04;17.44;94.89
71088;SHT31;58747;50.674;4.616;2022-08-05T05:17:41;17.42;94.92
71088;SHT31;58747;50.674;4.616;2022-08-05T05:20:09;17.42;94.70
71088;SHT31;58747;50.674;4.616;2022-08-05T05:22:35;17.42;94.45
71088;SHT31;58747;50.674;4.616;2022-08-05T05:25:00;17.46;95.05
71088;SHT31;58747;50.674;4.616;2022-08-05T05:27:27;17.46;95.41
71088;SHT31;58747;50.674;4.616;2022-08-05T05:29:52;17.44;94.87
71088;SHT31;58747;50.674;4.616;2022-08-05T05:32:18;17.49;95.09
71088;SHT31;58747;50.674;4.616;2022-08-05T05:34:43;17.44;94.26
71088;SHT31;58747;50.674;4.616;2022-08-05T05:37:08;17.46;94.81
71088;SHT31;58747;50.674;4.616;2022-08-05T05:39:34;17.49;94.66
71088;SHT31;58747;50.674;4.616;2022-08-05T05:41:59;17.47;94.25
71088;SHT31;58747;50.674;4.616;2022-08-05T05:44:25;17.59;94.54
71088;SHT31;58747;50.674;4.616;2022-08-05T05:46:50;17.55;93.99
71088;SHT31;58747;50.674;4.616;2022-08-05T05:49:15;17.61;94.04
71088;SHT31;58747;50.674;4.616;2022-08-05T05:51:40;17.66;94.13
71088;SHT31;58747;50.674;4.616;2022-08-05T05:54:06;17.71;93.96
71088;SHT31;58747;50.674;4.616;2022-08-05T05:56:31;17.73;94.05
71088;SHT31;58747;50.674;4.616;2022-08-05T05:58:56;17.78;93.56
71088;SHT31;58747;50.674;4.616;2022-08-05T06:01:22;17.84;93.23
71088;SHT31;58747;50.674;4.616;2022-08-05T06:03:47;17.90;93.42
71088;SHT31;58747;50.674;4.616;2022-08-05T06:06:13;17.92;93.06
71088;SHT31;58747;50.674;4.616;2022-08-05T06:08:38;17.95;93.27
71088;SHT31;58747;50.674;4.616;2022-08-05T06:11:04;18.15;92.78
71088;SHT31;58747;50.674;4.616;2022-08-05T06:13:30;18.09;92.41
71088;SHT31;58747;50.674;4.616;2022-08-05T06:15:55;18.32;91.81
71088;SHT31;58747;50.674;4.616;2022-08-05T06:18:20;18.24;91.80
71088;SHT31;58747;50.674;4.616;2022-08-05T06:20:46;18.21;92.09
71088;SHT31;58747;50.674;4.616;2022-08-05T06:23:11;18.19;92.23
71088;SHT31;58747;50.674;4.616;2022-08-05T06:25:36;18.19;92.11
71088;SHT31;58747;50.674;4.616;2022-08-05T06:28:03;18.18;92.15
71088;SHT31;58747;50.674;4.616;2022-08-05T06:30:28;18.16;92.39
71088;SHT31;58747;50.674;4.616;2022-08-05T06:32:54;18.22;92.56
71088;SHT31;58747;50.674;4.616;2022-08-05T06:35:19;18.16;92.40
71088;SHT31;58747;50.674;4.616;2022-08-05T06:37:45;18.22;91.82
71088;SHT31;58747;50.674;4.616;2022-08-05T06:40:11;18.24;92.33
71088;SHT31;58747;50.674;4.616;2022-08-05T06:42:37;18.28;91.34
71088;SHT31;58747;50.674;4.616;2022-08-05T06:45:03;18.31;91.76
71088;SHT31;58747;50.674;4.616;2022-08-05T06:47:29;18.28;91.64
71088;SHT31;58747;50.674;4.616;2022-08-05T06:49:55;18.31;91.78
71088;SHT31;58747;50.674;4.616;2022-08-05T06:52:21;18.40;91.68
71088;SHT31;58747;50.674;4.616;2022-08-05T06:54:46;18.48;91.25
71088;SHT31;58747;50.674;4.616;2022-08-05T06:57:11;18.60;90.64
71088;SHT31;58747;50.674;4.616;2022-08-05T06:59:39;18.69;90.48
71088;SHT31;58747;50.674;4.616;2022-08-05T07:02:05;18.86;90.55
71088;SHT31;58747;50.674;4.616;2022-08-05T07:04:31;18.97;89.89
71088;SHT31;58747;50.674;4.616;2022-08-05T07:06:56;19.01;90.47
71088;SHT31;58747;50.674;4.616;2022-08-05T07:09:21;19.11;88.25
71088;SHT31;58747;50.674;4.616;2022-08-05T07:11:47;19.18;87.86
71088;SHT31;58747;50.674;4.616;2022-08-05T07:14:12;19.22;88.15
71088;SHT31;58747;50.674;4.616;2022-08-05T07:16:59;19.41;87.63
71088;SHT31;58747;50.674;4.616;2022-08-05T07:19:25;19.36;87.77
71088;SHT31;58747;50.674;4.616;2022-08-05T07:21:53;19.46;86.59
71088;SHT31;58747;50.674;4.616;2022-08-05T07:24:18;19.44;87.55
71088;SHT31;58747;50.674;4.616;2022-08-05T07:26:44;19.34;86.98
71088;SHT31;58747;50.674;4.616;2022-08-05T07:29:10;19.41;87.75
71088;SHT31;58747;50.674;4.616;2022-08-05T07:31:35;19.48;87.60
71088;SHT31;58747;50.674;4.616;2022-08-05T07:34:01;19.42;87.17
71088;SHT31;58747;50.674;4.616;2022-08-05T07:36:27;19.44;87.66
71088;SHT31;58747;50.674;4.616;2022-08-05T07:38:53;19.25;85.56
71088;SHT31;58747;50.674;4.616;2022-08-05T07:41:21;19.28;86.63
71088;SHT31;58747;50.674;4.616;2022-08-05T07:43:47;19.38;87.43
71088;SHT31;58747;50.674;4.616;2022-08-05T07:46:12;19.31;85.77
71088;SHT31;58747;50.674;4.616;2022-08-05T07:48:38;19.38;87.40
71088;SHT31;58747;50.674;4.616;2022-08-05T07:51:03;19.55;87.74
71088;SHT31;58747;50.674;4.616;2022-08-05T07:53:29;19.61;86.41
71088;SHT31;58747;50.674;4.616;2022-08-05T07:55:54;19.56;86.40
71088;SHT31;58747;50.674;4.616;2022-08-05T07:58:20;19.52;87.19
71088;SHT31;58747;50.674;4.616;2022-08-05T08:00:45;19.69;86.59
71088;SHT31;58747;50.674;4.616;2022-08-05T08:03:12;19.73;84.91
71088;SHT31;58747;50.674;4.616;2022-08-05T08:05:39;19.87;86.13
71088;SHT31;58747;50.674;4.616;2022-08-05T08:08:07;19.96;86.53
71088;SHT31;58747;50.674;4.616;2022-08-05T08:10:33;19.93;85.22
71088;SHT31;58747;50.674;4.616;2022-08-05T08:12:58;19.97;85.72
71088;SHT31;58747;50.674;4.616;2022-08-05T08:15:24;19.94;84.95
71088;SHT31;58747;50.674;4.616;2022-08-05T08:17:49;19.86;84.79
71088;SHT31;58747;50.674;4.616;2022-08-05T08:20:14;19.72;84.67
71088;SHT31;58747;50.674;4.616;2022-08-05T08:22:40;19.66;85.36
71088;SHT31;58747;50.674;4.616;2022-08-05T08:25:06;19.73;85.66
71088;SHT31;58747;50.674;4.616;2022-08-05T08:27:31;19.87;85.95
71088;SHT31;58747;50.674;4.616;2022-08-05T08:29:57;19.76;86.17
71088;SHT31;58747;50.674;4.616;2022-08-05T08:32:23;19.77;84.75
71088;SHT31;58747;50.674;4.616;2022-08-05T08:34:48;19.79;85.82
71088;SHT31;58747;50.674;4.616;2022-08-05T08:37:15;19.90;86.27
71088;SHT31;58747;50.674;4.616;2022-08-05T08:39:41;20.03;85.59
71088;SHT31;58747;50.674;4.616;2022-08-05T08:42:08;20.12;85.56
71088;SHT31;58747;50.674;4.616;2022-08-05T08:44:35;20.18;85.67
71088;SHT31;58747;50.674;4.616;2022-08-05T08:47:02;20.24;85.23
71088;SHT31;58747;50.674;4.616;2022-08-05T08:49:29;20.30;84.68
71088;SHT31;58747;50.674;4.616;2022-08-05T08:52:00;20.30;83.31
71088;SHT31;58747;50.674;4.616;2022-08-05T08:54:29;20.25;82.80
71088;SHT31;58747;50.674;4.616;2022-08-05T08:56:54;20.25;82.83
71088;SHT31;58747;50.674;4.616;2022-08-05T08:59:21;20.40;82.45
71088;SHT31;58747;50.674;4.616;2022-08-05T09:01:47;20.48;83.16
71088;SHT31;58747;50.674;4.616;2022-08-05T09:04:12;20.56;81.30
71088;SHT31;58747;50.674;4.616;2022-08-05T09:06:38;20.61;81.30
71088;SHT31;58747;50.674;4.616;2022-08-05T09:09:04;20.74;82.30
71088;SHT31;58747;50.674;4.616;2022-08-05T09:11:32;20.92;80.89
71088;SHT31;58747;50.674;4.616;2022-08-05T09:13:58;21.13;80.29
71088;SHT31;58747;50.674;4.616;2022-08-05T09:16:25;21.04;79.75
71088;SHT31;58747;50.674;4.616;2022-08-05T09:18:50;21.13;79.19
71088;SHT31;58747;50.674;4.616;2022-08-05T09:21:16;20.95;79.01
71088;SHT31;58747;50.674;4.616;2022-08-05T09:23:44;20.88;79.10
71088;SHT31;58747;50.674;4.616;2022-08-05T09:26:12;20.79;80.88
71088;SHT31;58747;50.674;4.616;2022-08-05T09:28:39;20.78;80.64
71088;SHT31;58747;50.674;4.616;2022-08-05T09:31:12;21.07;78.68
71088;SHT31;58747;50.674;4.616;2022-08-05T09:33:52;21.32;78.21
71088;SHT31;58747;50.674;4.616;2022-08-05T09:36:18;21.40;76.87
71088;SHT31;58747;50.674;4.616;2022-08-05T09:38:57;21.57;77.04
71088;SHT31;58747;50.674;4.616;2022-08-05T09:41:24;21.98;76.09
71088;SHT31;58747;50.674;4.616;2022-08-05T09:43:49;22.08;76.35
71088;SHT31;58747;50.674;4.616;2022-08-05T09:46:31;22.16;77.29
71088;SHT31;58747;50.674;4.616;2022-08-05T09:49:00;22.39;76.13
71088;SHT31;58747;50.674;4.616;2022-08-05T09:51:34;22.63;72.03
71088;SHT31;58747;50.674;4.616;2022-08-05T09:54:00;22.74;70.53
71088;SHT31;58747;50.674;4.616;2022-08-05T09:56:28;23.08;72.32
71088;SHT31;58747;50.674;4.616;2022-08-05T10:01:23;23.42;67.51
71088;SHT31;58747;50.674;4.616;2022-08-05T10:04:13;23.45;71.20
71088;SHT31;58747;50.674;4.616;2022-08-05T10:06:53;23.51;67.91
71088;SHT31;58747;50.674;4.616;2022-08-05T10:09:19;23.38;66.06
71088;SHT31;58747;50.674;4.616;2022-08-05T10:11:47;23.55;67.82
71088;SHT31;58747;50.674;4.616;2022-08-05T10:14:21;23.86;69.65
71088;SHT31;58747;50.674;4.616;2022-08-05T10:16:47;23.92;67.74
71088;SHT31;58747;50.674;4.616;2022-08-05T10:19:14;23.67;70.96
71088;SHT31;58747;50.674;4.616;2022-08-05T10:21:39;23.93;64.11
71088;SHT31;58747;50.674;4.616;2022-08-05T10:24:05;23.99;62.50
71088;SHT31;58747;50.674;4.616;2022-08-05T10:26:31;23.55;64.30
71088;SHT31;58747;50.674;4.616;2022-08-05T10:28:57;23.08;65.29
71088;SHT31;58747;50.674;4.616;2022-08-05T10:31:22;22.84;65.82
71088;SHT31;58747;50.674;4.616;2022-08-05T10:33:48;22.55;68.65
71088;SHT31;58747;50.674;4.616;2022-08-05T10:36:14;22.36;69.90
71088;SHT31;58747;50.674;4.616;2022-08-05T10:38:41;22.61;68.33
71088;SHT31;58747;50.674;4.616;2022-08-05T10:41:27;22.78;67.92
71088;SHT31;58747;50.674;4.616;2022-08-05T10:44:28;23.07;65.30
71088;SHT31;58747;50.674;4.616;2022-08-05T10:46:51;23.31;64.58
71088;SHT31;58747;50.674;4.616;2022-08-05T10:49:18;23.49;56.62
71088;SHT31;58747;50.674;4.616;2022-08-05T10:51:48;23.54;58.38
71088;SHT31;58747;50.674;4.616;2022-08-05T10:54:15;23.77;60.79
71088;SHT31;58747;50.674;4.616;2022-08-05T10:56:45;23.69;60.04
71088;SHT31;58747;50.674;4.616;2022-08-05T10:59:18;23.84;60.98
71088;SHT31;58747;50.674;4.616;2022-08-05T11:01:44;24.25;62.38
71088;SHT31;58747;50.674;4.616;2022-08-05T11:04:11;24.79;60.35
71088;SHT31;58747;50.674;4.616;2022-08-05T11:09:43;25.61;58.82
71088;SHT31;58747;50.674;4.616;2022-08-05T11:15:23;25.03;52.47
71088;SHT31;58747;50.674;4.616;2022-08-05T11:18:06;25.56;47.99
71088;SHT31;58747;50.674;4.616;2022-08-05T11:20:38;27.22;46.69
71088;SHT31;58747;50.674;4.616;2022-08-05T11:23:26;28.51;44.81
71088;SHT31;58747;50.674;4.616;2022-08-05T11:26:05;30.00;42.24
71088;SHT31;58747;50.674;4.616;2022-08-05T11:33:33;25.29;50.34
71088;SHT31;58747;50.674;4.616;2022-08-05T11:36:09;24.65;54.41
71088;SHT31;58747;50.674;4.616;2022-08-05T11:41:04;28.03;44.54
71088;SHT31;58747;50.674;4.616;2022-08-05T11:43:30;29.75;43.87
71088;SHT31;58747;50.674;4.616;2022-08-05T11:45:56;30.62;42.77
71088;SHT31;58747;50.674;4.616;2022-08-05T11:48:22;31.89;38.13
71088;SHT31;58747;50.674;4.616;2022-08-05T11:50:49;32.75;36.79
71088;SHT31;58747;50.674;4.616;2022-08-05T11:53:15;32.26;37.75
71088;SHT31;58747;50.674;4.616;2022-08-05T11:58:37;29.77;42.49
71088;SHT31;58747;50.674;4.616;2022-08-05T12:03:45;27.53;43.97
71088;SHT31;58747;50.674;4.616;2022-08-05T12:06:13;28.11;44.67
71088;SHT31;58747;50.674;4.616;2022-08-05T12:11:25;28.37;45.28
71088;SHT31;58747;50.674;4.616;2022-08-05T12:14:00;29.05;41.12
71088;SHT31;58747;50.674;4.616;2022-08-05T12:16:37;26.91;45.69
71088;SHT31;58747;50.674;4.616;2022-08-05T12:19:04;26.08;49.84
71088;SHT31;58747;50.674;4.616;2022-08-05T12:21:35;25.78;47.30
71088;SHT31;58747;50.674;4.616;2022-08-05T12:24:09;25.39;48.03
71088;SHT31;58747;50.674;4.616;2022-08-05T12:29:11;24.81;49.73
71088;SHT31;58747;50.674;4.616;2022-08-05T12:31:37;24.48;47.92
71088;SHT31;58747;50.674;4.616;2022-08-05T12:34:05;24.67;51.22
71088;SHT31;58747;50.674;4.616;2022-08-05T12:36:31;24.76;50.13
71088;SHT31;58747;50.674;4.616;2022-08-05T12:38:58;25.68;48.31
71088;SHT31;58747;50.674;4.616;2022-08-05T12:41:29;26.12;46.68
71088;SHT31;58747;50.674;4.616;2022-08-05T12:43:57;26.63;44.52
71088;SHT31;58747;50.674;4.616;2022-08-05T12:46:25;25.77;44.77
71088;SHT31;58747;50.674;4.616;2022-08-05T12:48:57;25.43;49.49
71088;SHT31;58747;50.674;4.616;2022-08-05T12:51:23;24.83;50.18
71088;SHT31;58747;50.674;4.616;2022-08-05T12:53:48;24.54;49.92
71088;SHT31;58747;50.674;4.616;2022-08-05T12:56:21;24.07;48.89
71088;SHT31;58747;50.674;4.616;2022-08-05T12:59:13;23.69;48.24
71088;SHT31;58747;50.674;4.616;2022-08-05T13:01:41;24.00;49.40
71088;SHT31;58747;50.674;4.616;2022-08-05T13:04:07;25.81;48.21
71088;SHT31;58747;50.674;4.616;2022-08-05T13:06:32;26.64;44.52
71088;SHT31;58747;50.674;4.616;2022-08-05T13:09:05;26.80;47.31
71088;SHT31;58747;50.674;4.616;2022-08-05T13:11:31;26.18;46.47
71088;SHT31;58747;50.674;4.616;2022-08-05T13:13:57;25.56;48.40
71088;SHT31;58747;50.674;4.616;2022-08-05T13:16:23;25.54;48.47
71088;SHT31;58747;50.674;4.616;2022-08-05T13:18:55;25.06;46.82
71088;SHT31;58747;50.674;4.616;2022-08-05T13:21:21;24.98;49.15
71088;SHT31;58747;50.674;4.616;2022-08-05T13:23:46;25.06;48.83
71088;SHT31;58747;50.674;4.616;2022-08-05T13:26:12;24.88;48.23
71088;SHT31;58747;50.674;4.616;2022-08-05T13:28:37;24.92;49.88
71088;SHT31;58747;50.674;4.616;2022-08-05T13:31:02;24.85;49.74
71088;SHT31;58747;50.674;4.616;2022-08-05T13:33:28;24.61;48.90
71088;SHT31;58747;50.674;4.616;2022-08-05T13:35:54;24.40;48.67
71088;SHT31;58747;50.674;4.616;2022-08-05T13:38:20;24.21;51.12
71088;SHT31;58747;50.674;4.616;2022-08-05T13:40:45;24.20;50.27
71088;SHT31;58747;50.674;4.616;2022-08-05T13:43:10;24.06;51.16
71088;SHT31;58747;50.674;4.616;2022-08-05T13:45:36;24.13;49.34
71088;SHT31;58747;50.674;4.616;2022-08-05T13:48:02;24.13;50.45
71088;SHT31;58747;50.674;4.616;2022-08-05T13:50:27;23.99;47.01
71088;SHT31;58747;50.674;4.616;2022-08-05T13:52:52;24.12;49.79
71088;SHT31;58747;50.674;4.616;2022-08-05T13:55:18;24.07;48.35
71088;SHT31;58747;50.674;4.616;2022-08-05T13:57:43;24.12;50.57
71088;SHT31;58747;50.674;4.616;2022-08-05T14:00:09;24.14;47.88
71088;SHT31;58747;50.674;4.616;2022-08-05T14:02:34;23.94;48.15
71088;SHT31;58747;50.674;4.616;2022-08-05T14:05:00;23.84;47.32
71088;SHT31;58747;50.674;4.616;2022-08-05T14:07:36;23.73;45.00
71088;SHT31;58747;50.674;4.616;2022-08-05T14:12:38;24.03;46.96
71088;SHT31;58747;50.674;4.616;2022-08-05T14:15:04;24.33;47.77
71088;SHT31;58747;50.674;4.616;2022-08-05T14:17:29;24.42;45.66
71088;SHT31;58747;50.674;4.616;2022-08-05T14:19:55;24.38;46.70
71088;SHT31;58747;50.674;4.616;2022-08-05T14:22:21;24.24;46.87
71088;SHT31;58747;50.674;4.616;2022-08-05T14:24:47;24.23;47.79
71088;SHT31;58747;50.674;4.616;2022-08-05T14:27:12;24.30;46.58
71088;SHT31;58747;50.674;4.616;2022-08-05T14:29:38;24.37;46.07
71088;SHT31;58747;50.674;4.616;2022-08-05T14:32:03;24.17;46.03
71088;SHT31;58747;50.674;4.616;2022-08-05T14:34:29;23.97;45.64
71088;SHT31;58747;50.674;4.616;2022-08-05T14:36:54;24.03;46.78
71088;SHT31;58747;50.674;4.616;2022-08-05T14:39:19;23.87;47.00
71088;SHT31;58747;50.674;4.616;2022-08-05T14:41:45;23.73;47.64
71088;SHT31;58747;50.674;4.616;2022-08-05T14:44:10;23.55;47.60
71088;SHT31;58747;50.674;4.616;2022-08-05T14:46:36;23.52;46.52
71088;SHT31;58747;50.674;4.616;2022-08-05T14:49:02;23.56;46.94
71088;SHT31;58747;50.674;4.616;2022-08-05T14:51:28;23.55;45.72
71088;SHT31;58747;50.674;4.616;2022-08-05T14:53:53;23.51;46.11
71088;SHT31;58747;50.674;4.616;2022-08-05T14:56:19;23.41;46.61
71088;SHT31;58747;50.674;4.616;2022-08-05T14:58:44;23.44;48.58
71088;SHT31;58747;50.674;4.616;2022-08-05T15:01:10;23.51;48.77
71088;SHT31;58747;50.674;4.616;2022-08-05T15:03:35;23.42;47.88
71088;SHT31;58747;50.674;4.616;2022-08-05T15:06:02;23.41;47.15
71088;SHT31;58747;50.674;4.616;2022-08-05T15:08:27;23.52;45.99
71088;SHT31;58747;50.674;4.616;2022-08-05T15:10:53;23.52;46.29
71088;SHT31;58747;50.674;4.616;2022-08-05T15:13:18;23.44;47.21
71088;SHT31;58747;50.674;4.616;2022-08-05T15:15:44;23.38;49.25
71088;SHT31;58747;50.674;4.616;2022-08-05T15:18:09;23.25;47.41
71088;SHT31;58747;50.674;4.616;2022-08-05T15:20:35;23.14;47.95
71088;SHT31;58747;50.674;4.616;2022-08-05T15:23:08;22.76;49.56
71088;SHT31;58747;50.674;4.616;2022-08-05T15:25:33;22.66;48.27
71088;SHT31;58747;50.674;4.616;2022-08-05T15:27:59;22.66;48.57
71088;SHT31;58747;50.674;4.616;2022-08-05T15:30:25;22.49;48.47
71088;SHT31;58747;50.674;4.616;2022-08-05T15:32:50;22.52;48.11
71088;SHT31;58747;50.674;4.616;2022-08-05T15:35:16;22.67;48.26
71088;SHT31;58747;50.674;4.616;2022-08-05T15:37:41;22.71;47.70
71088;SHT31;58747;50.674;4.616;2022-08-05T15:40:07;22.70;48.25
71088;SHT31;58747;50.674;4.616;2022-08-05T15:42:33;22.73;49.48
71088;SHT31;58747;50.674;4.616;2022-08-05T15:44:58;22.56;47.68
71088;SHT31;58747;50.674;4.616;2022-08-05T15:47:24;22.42;47.15
71088;SHT31;58747;50.674;4.616;2022-08-05T15:49:50;22.29;47.50
71088;SHT31;58747;50.674;4.616;2022-08-05T15:52:17;22.22;48.07
71088;SHT31;58747;50.674;4.616;2022-08-05T15:54:42;22.18;47.80
71088;SHT31;58747;50.674;4.616;2022-08-05T15:57:08;22.16;49.45
71088;SHT31;58747;50.674;4.616;2022-08-05T15:59:34;22.19;48.45
71088;SHT31;58747;50.674;4.616;2022-08-05T16:02:00;22.26;48.53
71088;SHT31;58747;50.674;4.616;2022-08-05T16:04:25;22.19;46.64
71088;SHT31;58747;50.674;4.616;2022-08-05T16:06:52;22.23;46.87
71088;SHT31;58747;50.674;4.616;2022-08-05T16:09:17;22.35;47.07